sensor_id;sensor_type;location;lat;lon;timestamp;pressure;altitude;pressure_sealevel;temperature;humidity
50684;BME280;36654;45.042;38.994;2023-05-11T00:01:05;101767.25;;;8.23;81.10
50684;BME280;36654;45.042;38.994;2023-05-11T00:03:30;101769.78;;;8.20;81.33
50684;BME280;36654;45.042;38.994;2023-05-11T00:05:57;101778.38;;;8.14;81.46
50684;BME280;36654;45.042;38.994;2023-05-11T00:08:23;101775.63;;;8.11;81.80
50684;BME280;36654;45.042;38.994;2023-05-11T00:10:48;101760.09;;;7.96;81.95
50684;BME280;36654;45.042;38.994;2023-05-11T00:13:14;101775.44;;;8.07;82.12
50684;BME280;36654;45.042;38.994;2023-05-11T00:15:40;101759.34;;;8.00;82.54
50684;BME280;36654;45.042;38.994;2023-05-11T00:18:06;101762.97;;;8.03;82.39
50684;BME280;36654;45.042;38.994;2023-05-11T00:20:31;101781.53;;;8.04;82.82
50684;BME280;36654;45.042;38.994;2023-05-11T00:22:57;101759.34;;;8.00;82.89
50684;BME280;36654;45.042;38.994;2023-05-11T00:25:23;101773.63;;;8.06;82.99
50684;BME280;36654;45.042;38.994;2023-05-11T00:27:48;101773.53;;;8.03;82.94
50684;BME280;36654;45.042;38.994;2023-05-11T00:30:14;101769.13;;;8.03;82.94
50684;BME280;36654;45.042;38.994;2023-05-11T00:32:41;101760.16;;;7.98;83.00
50684;BME280;36654;45.042;38.994;2023-05-11T00:35:07;101780.72;;;8.07;82.95
50684;BME280;36654;45.042;38.994;2023-05-11T00:37:33;101777.13;;;8.05;82.86
50684;BME280;36654;45.042;38.994;2023-05-11T00:39:59;101769.13;;;8.03;82.83
50684;BME280;36654;45.042;38.994;2023-05-11T00:42:25;101756.59;;;7.97;83.07
50684;BME280;36654;45.042;38.994;2023-05-11T00:44:50;101751.94;;;7.90;82.88
50684;BME280;36654;45.042;38.994;2023-05-11T00:47:16;101777.84;;;8.00;82.94
50684;BME280;36654;45.042;38.994;2023-05-11T00:49:42;101769.81;;;7.97;83.02
50684;BME280;36654;45.042;38.994;2023-05-11T00:52:08;101776.84;;;7.97;83.11
50684;BME280;36654;45.042;38.994;2023-05-11T00:54:34;101783.78;;;7.95;83.14
50684;BME280;36654;45.042;38.994;2023-05-11T00:57:00;101764.31;;;7.91;83.27
50684;BME280;36654;45.042;38.994;2023-05-11T00:59:27;101735.41;;;7.72;83.30
50684;BME280;36654;45.042;38.994;2023-05-11T01:01:53;101762.75;;;7.96;83.39
50684;BME280;36654;45.042;38.994;2023-05-11T01:04:19;101740.97;;;7.80;83.48
50684;BME280;36654;45.042;38.994;2023-05-11T01:07:03;101711.34;;;7.64;83.33
50684;BME280;36654;45.042;38.994;2023-05-11T01:15:11;101774.72;;;7.88;83.50
50684;BME280;36654;45.042;38.994;2023-05-11T01:17:45;101774.63;;;7.85;83.66
50684;BME280;36654;45.042;38.994;2023-05-11T01:20:17;101777.19;;;7.84;83.78
50684;BME280;36654;45.042;38.994;2023-05-11T01:22:58;101767.41;;;7.81;83.89
50684;BME280;36654;45.042;38.994;2023-05-11T01:31:20;101753.00;;;7.50;84.45
50684;BME280;36654;45.042;38.994;2023-05-11T01:33:54;101759.25;;;7.52;84.63
50684;BME280;36654;45.042;38.994;2023-05-11T01:36:25;101768.16;;;7.54;84.80
50684;BME280;36654;45.042;38.994;2023-05-11T01:38:53;101765.53;;;7.56;85.20
50684;BME280;36654;45.042;38.994;2023-05-11T01:41:23;101761.81;;;7.51;85.10
50684;BME280;36654;45.042;38.994;2023-05-11T01:43:57;101757.50;;;7.53;85.17
50684;BME280;36654;45.042;38.994;2023-05-11T01:46:26;101698.84;;;7.15;84.88
50684;BME280;36654;45.042;38.994;2023-05-11T01:48:55;101760.69;;;7.44;85.09
50684;BME280;36654;45.042;38.994;2023-05-11T01:51:21;101755.44;;;7.44;85.17
50684;BME280;36654;45.042;38.994;2023-05-11T01:53:49;101753.75;;;7.46;85.25
50684;BME280;36654;45.042;38.994;2023-05-11T01:56:18;101722.19;;;7.27;85.32
50684;BME280;36654;45.042;38.994;2023-05-11T01:58:44;101760.81;;;7.47;85.21
50684;BME280;36654;45.042;38.994;2023-05-11T02:01:12;101692.59;;;7.13;85.34
50684;BME280;36654;45.042;38.994;2023-05-11T02:03:40;101748.09;;;7.37;85.42
50684;BME280;36654;45.042;38.994;2023-05-11T02:06:09;101751.63;;;7.38;85.60
50684;BME280;36654;45.042;38.994;2023-05-11T02:08:37;101756.81;;;7.36;85.87
50684;BME280;36654;45.042;38.994;2023-05-11T02:11:04;101709.28;;;7.12;85.99
50684;BME280;36654;45.042;38.994;2023-05-11T02:13:31;101735.50;;;7.30;86.32
50684;BME280;36654;45.042;38.994;2023-05-11T02:15:59;101758.66;;;7.37;86.22
50684;BME280;36654;45.042;38.994;2023-05-11T02:18:27;101745.47;;;7.37;86.29
50684;BME280;36654;45.042;38.994;2023-05-11T02:20:53;101731.59;;;7.20;86.24
50684;BME280;36654;45.042;38.994;2023-05-11T02:23:21;101747.47;;;7.22;86.54
50684;BME280;36654;45.042;38.994;2023-05-11T02:25:51;101691.91;;;6.96;86.68
50684;BME280;36654;45.042;38.994;2023-05-11T02:28:17;101746.75;;;7.26;86.90
50684;BME280;36654;45.042;38.994;2023-05-11T02:30:45;101752.88;;;7.25;86.85
50684;BME280;36654;45.042;38.994;2023-05-11T02:33:30;101743.91;;;7.21;86.87
50684;BME280;36654;45.042;38.994;2023-05-11T02:35:58;101742.22;;;7.22;87.11
50684;BME280;36654;45.042;38.994;2023-05-11T02:38:32;101758.25;;;7.28;86.92
50684;BME280;36654;45.042;38.994;2023-05-11T02:41:03;101745.78;;;7.24;87.02
50684;BME280;36654;45.042;38.994;2023-05-11T02:43:34;101751.22;;;7.27;87.00
50684;BME280;36654;45.042;38.994;2023-05-11T02:46:06;101762.09;;;7.36;86.77
50684;BME280;36654;45.042;38.994;2023-05-11T02:48:42;101761.88;;;7.30;86.93
50684;BME280;36654;45.042;38.994;2023-05-11T02:51:11;101756.72;;;7.33;86.88
50684;BME280;36654;45.042;38.994;2023-05-11T02:53:40;101774.25;;;7.76;86.89
50684;BME280;36654;45.042;38.994;2023-05-11T02:56:08;101765.13;;;8.61;86.55
50684;BME280;36654;45.042;38.994;2023-05-11T02:58:34;101773.34;;;10.04;84.62
50684;BME280;36654;45.042;38.994;2023-05-11T03:00:59;101721.38;;;11.08;78.79
50684;BME280;36654;45.042;38.994;2023-05-11T03:03:26;101764.91;;;12.29;72.04
50684;BME280;36654;45.042;38.994;2023-05-11T03:05:52;101767.03;;;12.93;67.00
50684;BME280;36654;45.042;38.994;2023-05-11T03:08:17;101763.22;;;13.30;63.70
50684;BME280;36654;45.042;38.994;2023-05-11T03:10:44;101779.63;;;13.56;62.05
50684;BME280;36654;45.042;38.994;2023-05-11T03:13:10;101789.63;;;13.71;61.17
50684;BME280;36654;45.042;38.994;2023-05-11T03:15:36;101778.38;;;13.92;60.08
50684;BME280;36654;45.042;38.994;2023-05-11T03:18:04;101779.50;;;14.08;59.26
50684;BME280;36654;45.042;38.994;2023-05-11T03:20:33;101784.16;;;14.23;58.45
50684;BME280;36654;45.042;38.994;2023-05-11T03:23:00;101770.75;;;14.18;57.64
50684;BME280;36654;45.042;38.994;2023-05-11T03:25:26;101793.13;;;14.31;57.08
50684;BME280;36654;45.042;38.994;2023-05-11T03:27:54;101791.34;;;14.32;56.49
50684;BME280;36654;45.042;38.994;2023-05-11T03:30:21;101795.03;;;14.41;56.27
50684;BME280;36654;45.042;38.994;2023-05-11T03:32:48;101742.56;;;14.42;55.60
50684;BME280;36654;45.042;38.994;2023-05-11T03:35:14;101785.75;;;14.83;55.08
50684;BME280;36654;45.042;38.994;2023-05-11T03:37:40;101788.44;;;14.83;54.59
50684;BME280;36654;45.042;38.994;2023-05-11T03:40:07;101770.56;;;14.79;55.10
50684;BME280;36654;45.042;38.994;2023-05-11T03:42:35;101728.59;;;14.64;54.78
50684;BME280;36654;45.042;38.994;2023-05-11T03:45:03;101784.94;;;14.91;55.11
50684;BME280;36654;45.042;38.994;2023-05-11T03:47:31;101784.97;;;14.94;54.85
50684;BME280;36654;45.042;38.994;2023-05-11T03:49:57;101791.97;;;14.82;55.52
50684;BME280;36654;45.042;38.994;2023-05-11T03:52:24;101779.53;;;14.87;55.18
50684;BME280;36654;45.042;38.994;2023-05-11T03:54:50;101790.34;;;15.00;55.09
50684;BME280;36654;45.042;38.994;2023-05-11T03:57:16;101742.09;;;14.78;54.59
50684;BME280;36654;45.042;38.994;2023-05-11T03:59:41;101774.28;;;14.94;55.48
50684;BME280;36654;45.042;38.994;2023-05-11T04:02:08;101793.16;;;15.14;55.18
50684;BME280;36654;45.042;38.994;2023-05-11T04:04:33;101781.63;;;15.19;54.95
50684;BME280;36654;45.042;38.994;2023-05-11T04:06:59;101778.06;;;15.19;54.43
50684;BME280;36654;45.042;38.994;2023-05-11T04:09:25;101788.81;;;15.25;54.37
50684;BME280;36654;45.042;38.994;2023-05-11T04:11:51;101786.25;;;15.39;54.57
50684;BME280;36654;45.042;38.994;2023-05-11T04:14:17;101778.28;;;15.45;54.25
50684;BME280;36654;45.042;38.994;2023-05-11T04:16:43;101787.47;;;15.78;53.57
50684;BME280;36654;45.042;38.994;2023-05-11T04:19:09;101792.91;;;15.93;53.09
50684;BME280;36654;45.042;38.994;2023-05-11T04:21:35;101749.16;;;15.82;51.93
50684;BME280;36654;45.042;38.994;2023-05-11T04:24:01;101801.09;;;16.24;51.39
50684;BME280;36654;45.042;38.994;2023-05-11T04:26:27;101784.22;;;16.40;50.71
50684;BME280;36654;45.042;38.994;2023-05-11T04:28:52;101795.03;;;16.71;49.99
50684;BME280;36654;45.042;38.994;2023-05-11T04:31:18;101794.19;;;16.92;49.42
50684;BME280;36654;45.042;38.994;2023-05-11T04:33:44;101783.53;;;17.18;48.07
50684;BME280;36654;45.042;38.994;2023-05-11T04:36:09;101750.47;;;17.10;47.38
50684;BME280;36654;45.042;38.994;2023-05-11T04:38:35;101783.50;;;17.39;47.40
50684;BME280;36654;45.042;38.994;2023-05-11T04:41:05;101751.38;;;17.38;46.38
50684;BME280;36654;45.042;38.994;2023-05-11T04:43:31;101786.16;;;17.98;45.12
50684;BME280;36654;45.042;38.994;2023-05-11T04:45:57;101745.88;;;18.08;44.78
50684;BME280;36654;45.042;38.994;2023-05-11T04:48:26;101784.97;;;18.68;43.72
50684;BME280;36654;45.042;38.994;2023-05-11T04:50:55;101761.50;;;18.99;42.89
50684;BME280;36654;45.042;38.994;2023-05-11T04:53:21;101771.16;;;19.22;41.57
50684;BME280;36654;45.042;38.994;2023-05-11T04:55:46;101781.94;;;19.23;41.97
50684;BME280;36654;45.042;38.994;2023-05-11T04:58:12;101782.69;;;19.40;40.48
50684;BME280;36654;45.042;38.994;2023-05-11T05:00:38;101787.91;;;19.57;39.92
50684;BME280;36654;45.042;38.994;2023-05-11T05:03:04;101785.06;;;19.77;39.93
50684;BME280;36654;45.042;38.994;2023-05-11T05:05:29;101780.38;;;19.93;39.52
50684;BME280;36654;45.042;38.994;2023-05-11T05:07:55;101788.47;;;19.95;39.30
50684;BME280;36654;45.042;38.994;2023-05-11T05:10:20;101777.69;;;19.93;39.54
50684;BME280;36654;45.042;38.994;2023-05-11T05:12:46;101780.41;;;19.92;39.48
50684;BME280;36654;45.042;38.994;2023-05-11T05:15:12;101783.97;;;19.97;39.44
50684;BME280;36654;45.042;38.994;2023-05-11T05:17:38;101789.25;;;20.01;39.23
50684;BME280;36654;45.042;38.994;2023-05-11T05:20:04;101770.22;;;20.20;38.92
50684;BME280;36654;45.042;38.994;2023-05-11T05:22:30;101773.59;;;20.37;38.80
50684;BME280;36654;45.042;38.994;2023-05-11T05:24:56;101755.63;;;20.36;38.27
50684;BME280;36654;45.042;38.994;2023-05-11T05:27:22;101793.16;;;20.55;38.52
50684;BME280;36654;45.042;38.994;2023-05-11T05:29:48;101797.44;;;20.66;38.16
50684;BME280;36654;45.042;38.994;2023-05-11T05:32:13;101787.75;;;20.52;38.75
50684;BME280;36654;45.042;38.994;2023-05-11T05:34:39;101793.38;;;20.33;38.68
50684;BME280;36654;45.042;38.994;2023-05-11T05:37:04;101793.38;;;20.32;38.70
50684;BME280;36654;45.042;38.994;2023-05-11T05:39:30;101789.75;;;20.37;38.18
50684;BME280;36654;45.042;38.994;2023-05-11T05:41:56;101778.78;;;20.53;37.89
50684;BME280;36654;45.042;38.994;2023-05-11T05:44:21;101793.91;;;20.64;38.11
50684;BME280;36654;45.042;38.994;2023-05-11T05:46:47;101796.75;;;20.51;37.99
50684;BME280;36654;45.042;38.994;2023-05-11T05:49:13;101780.78;;;20.34;37.75
50684;BME280;36654;45.042;38.994;2023-05-11T05:51:39;101787.03;;;19.55;39.23
50684;BME280;36654;45.042;38.994;2023-05-11T05:54:05;101786.50;;;19.10;40.06
50684;BME280;36654;45.042;38.994;2023-05-11T05:56:30;101789.09;;;19.21;40.42
50684;BME280;36654;45.042;38.994;2023-05-11T05:58:59;101785.19;;;19.59;39.73
50684;BME280;36654;45.042;38.994;2023-05-11T06:01:25;101776.41;;;19.38;38.48
50684;BME280;36654;45.042;38.994;2023-05-11T06:03:51;101795.69;;;18.72;39.32
50684;BME280;36654;45.042;38.994;2023-05-11T06:06:17;101779.88;;;17.94;40.67
50684;BME280;36654;45.042;38.994;2023-05-11T06:08:43;101791.56;;;17.85;41.24
50684;BME280;36654;45.042;38.994;2023-05-11T06:11:09;101770.09;;;17.82;41.42
50684;BME280;36654;45.042;38.994;2023-05-11T06:13:34;101798.69;;;17.96;41.94
50684;BME280;36654;45.042;38.994;2023-05-11T06:16:00;101787.97;;;17.86;42.54
50684;BME280;36654;45.042;38.994;2023-05-11T06:18:26;101793.34;;;17.68;43.06
50684;BME280;36654;45.042;38.994;2023-05-11T06:20:52;101739.75;;;17.00;42.53
50684;BME280;36654;45.042;38.994;2023-05-11T06:23:17;101780.75;;;16.70;42.66
50684;BME280;36654;45.042;38.994;2023-05-11T06:25:43;101785.13;;;16.45;43.09
50684;BME280;36654;45.042;38.994;2023-05-11T06:28:08;101784.00;;;15.94;43.88
50684;BME280;36654;45.042;38.994;2023-05-11T06:30:34;101784.72;;;15.70;45.08
50684;BME280;36654;45.042;38.994;2023-05-11T06:33:00;101793.66;;;15.72;45.25
50684;BME280;36654;45.042;38.994;2023-05-11T06:35:26;101798.06;;;15.68;45.84
50684;BME280;36654;45.042;38.994;2023-05-11T06:37:51;101784.69;;;15.65;46.34
50684;BME280;36654;45.042;38.994;2023-05-11T06:40:17;101789.19;;;15.69;45.86
50684;BME280;36654;45.042;38.994;2023-05-11T06:42:43;101798.13;;;15.71;46.17
50684;BME280;36654;45.042;38.994;2023-05-11T06:45:09;101791.78;;;15.60;46.57
50684;BME280;36654;45.042;38.994;2023-05-11T06:47:35;101788.06;;;15.44;45.66
50684;BME280;36654;45.042;38.994;2023-05-11T06:50:00;101788.09;;;15.43;45.71
50684;BME280;36654;45.042;38.994;2023-05-11T06:52:26;101803.31;;;15.56;44.66
50684;BME280;36654;45.042;38.994;2023-05-11T06:54:52;101801.69;;;15.70;44.63
50684;BME280;36654;45.042;38.994;2023-05-11T06:57:18;101807.06;;;15.80;44.42
50684;BME280;36654;45.042;38.994;2023-05-11T06:59:43;101781.13;;;15.68;44.17
50684;BME280;36654;45.042;38.994;2023-05-11T07:02:09;101785.56;;;15.67;44.13
50684;BME280;36654;45.042;38.994;2023-05-11T07:04:35;101802.47;;;15.63;44.55
50684;BME280;36654;45.042;38.994;2023-05-11T07:07:01;101795.22;;;15.47;44.03
50684;BME280;36654;45.042;38.994;2023-05-11T07:09:27;101793.38;;;15.35;43.99
50684;BME280;36654;45.042;38.994;2023-05-11T07:11:54;101774.75;;;15.49;43.74
50684;BME280;36654;45.042;38.994;2023-05-11T07:14:20;101802.69;;;15.88;43.33
50684;BME280;36654;45.042;38.994;2023-05-11T07:16:46;101766.09;;;15.84;42.96
50684;BME280;36654;45.042;38.994;2023-05-11T07:19:12;101798.53;;;16.48;41.92
50684;BME280;36654;45.042;38.994;2023-05-11T07:21:37;101799.44;;;16.59;41.78
50684;BME280;36654;45.042;38.994;2023-05-11T07:24:03;101806.53;;;16.47;42.01
50684;BME280;36654;45.042;38.994;2023-05-11T07:26:29;101808.25;;;16.32;42.42
50684;BME280;36654;45.042;38.994;2023-05-11T07:28:55;101791.97;;;15.83;42.74
50684;BME280;36654;45.042;38.994;2023-05-11T07:31:20;101807.81;;;15.60;43.25
50684;BME280;36654;45.042;38.994;2023-05-11T07:33:46;101807.78;;;15.56;44.00
50684;BME280;36654;45.042;38.994;2023-05-11T07:36:13;101802.41;;;15.52;43.19
50684;BME280;36654;45.042;38.994;2023-05-11T07:38:39;101808.88;;;15.84;42.50
50684;BME280;36654;45.042;38.994;2023-05-11T07:41:04;101807.22;;;16.04;42.10
50684;BME280;36654;45.042;38.994;2023-05-11T07:43:30;101800.94;;;15.93;42.35
50684;BME280;36654;45.042;38.994;2023-05-11T07:45:56;101814.31;;;15.96;42.89
50684;BME280;36654;45.042;38.994;2023-05-11T07:48:21;101775.00;;;15.80;43.38
50684;BME280;36654;45.042;38.994;2023-05-11T07:50:47;101808.88;;;15.84;43.37
50684;BME280;36654;45.042;38.994;2023-05-11T07:53:14;101809.84;;;15.93;43.31
50684;BME280;36654;45.042;38.994;2023-05-11T07:55:40;101808.22;;;16.26;43.10
50684;BME280;36654;45.042;38.994;2023-05-11T07:58:05;101796.78;;;16.66;42.36
50684;BME280;36654;45.042;38.994;2023-05-11T08:00:31;101756.69;;;16.87;41.33
50684;BME280;36654;45.042;38.994;2023-05-11T08:02:57;101796.03;;;17.39;41.21
50684;BME280;36654;45.042;38.994;2023-05-11T08:05:23;101788.00;;;17.25;41.35
50684;BME280;36654;45.042;38.994;2023-05-11T08:07:48;101802.25;;;16.99;41.41
50684;BME280;36654;45.042;38.994;2023-05-11T08:10:14;101785.19;;;16.71;41.85
50684;BME280;36654;45.042;38.994;2023-05-11T08:12:40;101786.94;;;16.54;41.16
50684;BME280;36654;45.042;38.994;2023-05-11T08:15:06;101743.13;;;16.29;41.33
50684;BME280;36654;45.042;38.994;2023-05-11T08:17:32;101789.75;;;16.80;41.60
50684;BME280;36654;45.042;38.994;2023-05-11T08:19:57;101779.94;;;16.97;40.94
50684;BME280;36654;45.042;38.994;2023-05-11T08:22:23;101795.03;;;16.74;40.68
50684;BME280;36654;45.042;38.994;2023-05-11T08:24:49;101794.06;;;16.52;41.14
50684;BME280;36654;45.042;38.994;2023-05-11T08:27:17;101786.91;;;16.43;39.41
50684;BME280;36654;45.042;38.994;2023-05-11T08:29:43;101793.03;;;16.22;40.04
50684;BME280;36654;45.042;38.994;2023-05-11T08:32:09;101772.56;;;16.23;40.68
50684;BME280;36654;45.042;38.994;2023-05-11T08:37:02;101768.84;;;15.96;40.61
50684;BME280;36654;45.042;38.994;2023-05-11T08:39:28;101762.66;;;16.03;40.97
50684;BME280;36654;45.042;38.994;2023-05-11T08:41:57;101774.41;;;16.41;40.88
50684;BME280;36654;45.042;38.994;2023-05-11T08:44:26;101755.75;;;16.67;40.57
50684;BME280;36654;45.042;38.994;2023-05-11T08:46:54;101758.44;;;16.71;40.39
50684;BME280;36654;45.042;38.994;2023-05-11T08:49:22;101777.16;;;16.57;41.34
50684;BME280;36654;45.042;38.994;2023-05-11T08:51:48;101778.97;;;16.68;41.68
50684;BME280;36654;45.042;38.994;2023-05-11T08:54:13;101766.53;;;16.94;40.90
50684;BME280;36654;45.042;38.994;2023-05-11T08:56:40;101750.47;;;16.85;40.91
50684;BME280;36654;45.042;38.994;2023-05-11T08:59:07;101764.72;;;16.84;40.51
50684;BME280;36654;45.042;38.994;2023-05-11T09:01:35;101777.16;;;16.64;39.98
50684;BME280;36654;45.042;38.994;2023-05-11T09:04:02;101780.69;;;16.59;40.86
50684;BME280;36654;45.042;38.994;2023-05-11T09:06:28;101778.94;;;16.58;41.96
50684;BME280;36654;45.042;38.994;2023-05-11T09:08:55;101782.53;;;16.76;42.31
50684;BME280;36654;45.042;38.994;2023-05-11T09:11:21;101767.44;;;17.06;41.95
50684;BME280;36654;45.042;38.994;2023-05-11T09:13:47;101748.69;;;17.18;41.13
50684;BME280;36654;45.042;38.994;2023-05-11T09:16:13;101767.44;;;17.39;40.51
50684;BME280;36654;45.042;38.994;2023-05-11T09:18:52;101757.63;;;17.29;39.57
50684;BME280;36654;45.042;38.994;2023-05-11T09:21:23;101779.06;;;17.11;40.27
50684;BME280;36654;45.042;38.994;2023-05-11T09:23:49;101768.31;;;16.89;40.24
50684;BME280;36654;45.042;38.994;2023-05-11T09:26:19;101758.44;;;16.71;41.16
50684;BME280;36654;45.042;38.994;2023-05-11T09:28:53;101763.84;;;16.94;41.45
50684;BME280;36654;45.042;38.994;2023-05-11T09:34:22;101770.91;;;16.63;42.48
50684;BME280;36654;45.042;38.994;2023-05-11T09:36:50;101771.75;;;16.54;43.19
50684;BME280;36654;45.042;38.994;2023-05-11T09:39:15;101776.25;;;16.63;42.68
50684;BME280;36654;45.042;38.994;2023-05-11T09:41:44;101726.25;;;16.47;42.63
50684;BME280;36654;45.042;38.994;2023-05-11T09:44:14;101772.78;;;16.93;42.85
50684;BME280;36654;45.042;38.994;2023-05-11T09:46:43;101771.03;;;17.20;41.50
50684;BME280;36654;45.042;38.994;2023-05-11T09:49:10;101760.28;;;17.06;41.55
50684;BME280;36654;45.042;38.994;2023-05-11T09:51:38;101746.88;;;16.86;40.21
50684;BME280;36654;45.042;38.994;2023-05-11T09:54:18;101768.31;;;17.09;40.74
50684;BME280;36654;45.042;38.994;2023-05-11T09:56:48;101766.56;;;17.25;40.40
50684;BME280;36654;45.042;38.994;2023-05-11T09:59:15;101760.31;;;17.43;40.74
50684;BME280;36654;45.042;38.994;2023-05-11T10:01:41;101734.38;;;17.34;40.59
50684;BME280;36654;45.042;38.994;2023-05-11T10:04:07;101768.34;;;17.48;39.39
50684;BME280;36654;45.042;38.994;2023-05-11T10:06:51;101775.50;;;17.55;39.88
50684;BME280;36654;45.042;38.994;2023-05-11T10:09:21;101766.56;;;17.40;40.22
50684;BME280;36654;45.042;38.994;2023-05-11T10:11:48;101769.25;;;17.20;40.11
50684;BME280;36654;45.042;38.994;2023-05-11T10:14:15;101768.34;;;17.15;39.49
50684;BME280;36654;45.042;38.994;2023-05-11T10:16:43;101759.41;;;17.06;39.19
50684;BME280;36654;45.042;38.994;2023-05-11T10:19:09;101754.94;;;17.04;39.23
50684;BME280;36654;45.042;38.994;2023-05-11T10:21:36;101769.22;;;17.08;37.45
50684;BME280;36654;45.042;38.994;2023-05-11T10:24:02;101773.69;;;17.11;38.03
50684;BME280;36654;45.042;38.994;2023-05-11T10:26:30;101779.06;;;17.26;38.89
50684;BME280;36654;45.042;38.994;2023-05-11T10:29:00;101776.38;;;17.29;39.25
50684;BME280;36654;45.042;38.994;2023-05-11T10:31:27;101770.13;;;17.12;40.05
50684;BME280;36654;45.042;38.994;2023-05-11T10:33:53;101730.81;;;16.80;40.20
50684;BME280;36654;45.042;38.994;2023-05-11T10:36:22;101780.84;;;17.06;40.33
50684;BME280;36654;45.042;38.994;2023-05-11T10:38:48;101764.75;;;17.12;38.48
50684;BME280;36654;45.042;38.994;2023-05-11T10:50:03;101762.06;;;17.39;37.03
50684;BME280;36654;45.042;38.994;2023-05-11T11:00:56;101757.59;;;17.41;38.69
50684;BME280;36654;45.042;38.994;2023-05-11T11:03:29;101758.53;;;17.37;39.00
50684;BME280;36654;45.042;38.994;2023-05-11T11:05:55;101768.34;;;17.41;38.97
50684;BME280;36654;45.042;38.994;2023-05-11T11:08:20;101759.41;;;17.42;38.72
50684;BME280;36654;45.042;38.994;2023-05-11T11:10:46;101763.88;;;17.53;38.12
50684;BME280;36654;45.042;38.994;2023-05-11T11:13:15;101754.91;;;17.44;38.06
50684;BME280;36654;45.042;38.994;2023-05-11T11:20:52;101767.47;;;17.35;37.23
50684;BME280;36654;45.042;38.994;2023-05-11T11:23:43;101766.53;;;17.22;37.68
50684;BME280;36654;45.042;38.994;2023-05-11T11:26:15;101761.19;;;17.07;37.13
50684;BME280;36654;45.042;38.994;2023-05-11T11:31:33;101752.28;;;17.08;35.63
50684;BME280;36654;45.042;38.994;2023-05-11T11:39:25;101740.63;;;17.32;36.76
50684;BME280;36654;45.042;38.994;2023-05-11T11:42:02;101762.09;;;17.41;36.21
50684;BME280;36654;45.042;38.994;2023-05-11T11:44:28;101757.63;;;17.48;36.17
50684;BME280;36654;45.042;38.994;2023-05-11T11:47:23;101759.41;;;17.55;36.57
50684;BME280;36654;45.042;38.994;2023-05-11T11:49:52;101743.31;;;17.49;35.16
50684;BME280;36654;45.042;38.994;2023-05-11T11:55:00;101745.09;;;17.60;35.08
50684;BME280;36654;45.042;38.994;2023-05-11T11:59:57;101747.75;;;17.54;35.90
50684;BME280;36654;45.042;38.994;2023-05-11T12:02:23;101744.22;;;17.48;35.97
50684;BME280;36654;45.042;38.994;2023-05-11T12:04:59;101743.31;;;17.55;34.89
50684;BME280;36654;45.042;38.994;2023-05-11T12:07:26;101736.16;;;17.63;35.33
50684;BME280;36654;45.042;38.994;2023-05-11T12:09:55;101739.72;;;17.65;35.70
50684;BME280;36654;45.042;38.994;2023-05-11T12:12:21;101737.94;;;17.61;35.26
50684;BME280;36654;45.042;38.994;2023-05-11T12:14:47;101729.88;;;17.65;35.00
50684;BME280;36654;45.042;38.994;2023-05-11T12:17:23;101738.81;;;17.75;35.38
50684;BME280;36654;45.042;38.994;2023-05-11T12:19:49;101729.84;;;17.76;35.86
50684;BME280;36654;45.042;38.994;2023-05-11T12:22:21;101721.81;;;17.76;36.49
50684;BME280;36654;45.042;38.994;2023-05-11T12:24:47;101728.97;;;17.68;37.41
50684;BME280;36654;45.042;38.994;2023-05-11T12:27:15;101741.50;;;17.54;37.22
50684;BME280;36654;45.042;38.994;2023-05-11T12:29:41;101746.88;;;17.41;37.19
50684;BME280;36654;45.042;38.994;2023-05-11T12:32:10;101743.34;;;17.33;37.32
50684;BME280;36654;45.042;38.994;2023-05-11T12:34:37;101742.41;;;17.30;37.12
50684;BME280;36654;45.042;38.994;2023-05-11T12:37:04;101750.50;;;17.25;36.91
50684;BME280;36654;45.042;38.994;2023-05-11T12:39:30;101699.59;;;16.97;37.02
50684;BME280;36654;45.042;38.994;2023-05-11T12:41:56;101741.56;;;17.15;36.40
50684;BME280;36654;45.042;38.994;2023-05-11T12:44:24;101737.97;;;16.99;37.25
50684;BME280;36654;45.042;38.994;2023-05-11T12:46:51;101698.69;;;16.80;36.89
50684;BME280;36654;45.042;38.994;2023-05-11T12:49:24;101739.75;;;17.00;36.83
50684;BME280;36654;45.042;38.994;2023-05-11T12:52:02;101745.13;;;17.03;37.71
50684;BME280;36654;45.042;38.994;2023-05-11T12:54:39;101745.13;;;16.97;37.84
50684;BME280;36654;45.042;38.994;2023-05-11T12:57:28;101745.13;;;17.00;38.26
50684;BME280;36654;45.042;38.994;2023-05-11T13:00:07;101752.25;;;17.01;38.72
50684;BME280;36654;45.042;38.994;2023-05-11T13:02:34;101740.66;;;16.98;38.40
50684;BME280;36654;45.042;38.994;2023-05-11T13:05:09;101748.69;;;16.90;38.28
50684;BME280;36654;45.042;38.994;2023-05-11T13:07:36;101733.47;;;16.85;38.39
50684;BME280;36654;45.042;38.994;2023-05-11T13:10:02;101745.13;;;17.00;38.17
50684;BME280;36654;45.042;38.994;2023-05-11T13:12:28;101733.50;;;17.12;38.14
50684;BME280;36654;45.042;38.994;2023-05-11T13:15:10;101702.28;;;16.97;38.21
50684;BME280;36654;45.042;38.994;2023-05-11T13:17:40;101754.94;;;17.24;38.50
50684;BME280;36654;45.042;38.994;2023-05-11T13:22:42;101744.22;;;17.46;37.58
50684;BME280;36654;45.042;38.994;2023-05-11T13:25:08;101754.03;;;17.49;36.79
50684;BME280;36654;45.042;38.994;2023-05-11T13:27:35;101740.66;;;17.42;37.14
50684;BME280;36654;45.042;38.994;2023-05-11T13:30:02;101754.03;;;17.36;36.67
50684;BME280;36654;45.042;38.994;2023-05-11T13:32:29;101704.94;;;17.16;37.20
50684;BME280;36654;45.042;38.994;2023-05-11T13:34:54;101763.84;;;17.59;36.74
50684;BME280;36654;45.042;38.994;2023-05-11T13:37:20;101756.66;;;17.67;36.64
50684;BME280;36654;45.042;38.994;2023-05-11T13:39:46;101750.44;;;17.65;37.28